createdAt,value
2019-04-26T00:03:29.174Z,99.90
2019-04-26T00:08:34.394Z,99.90
2019-04-26T00:14:03.862Z,99.90
2019-04-26T00:19:07.633Z,99.90
2019-04-26T00:24:11.776Z,99.90
2019-04-26T00:29:15.479Z,99.90
2019-04-26T00:34:19.635Z,99.90
2019-04-26T00:39:25.011Z,99.90
2019-04-26T00:44:29.318Z,99.90
2019-04-26T00:49:43.495Z,99.90
2019-04-26T00:54:40.135Z,99.90
2019-04-26T00:59:44.510Z,99.90
2019-04-26T01:04:48.222Z,99.90
2019-04-26T01:09:51.933Z,99.90
2019-04-26T01:14:55.647Z,99.90
2019-04-26T01:20:01.009Z,99.90
2019-04-26T01:25:06.458Z,99.90
2019-04-26T01:30:11.194Z,99.90
2019-04-26T01:35:15.141Z,99.90
2019-04-26T01:40:22.018Z,99.90
2019-04-26T01:45:43.666Z,99.90
2019-04-26T01:50:47.520Z,99.90
2019-04-26T01:55:51.619Z,99.90
2019-04-26T02:01:10.602Z,99.90
2019-04-26T02:06:24.947Z,99.90
2019-04-26T02:11:20.286Z,99.90
2019-04-26T02:16:25.055Z,99.90
2019-04-26T02:21:44.320Z,99.90
2019-04-26T02:26:49.310Z,99.90
2019-04-26T02:31:56.716Z,99.90
2019-04-26T02:37:03.263Z,99.90
2019-04-26T02:42:26.621Z,99.90
2019-04-26T02:48:01.663Z,99.90
2019-04-26T02:53:20.688Z,99.90
2019-04-26T02:58:29.634Z,99.90
2019-04-26T03:03:35.373Z,99.90
2019-04-26T03:08:39.766Z,99.90
2019-04-26T03:19:21.870Z,99.90
2019-04-26T03:24:34.566Z,99.90
2019-04-26T03:29:48.146Z,99.90
2019-04-26T03:35:19.110Z,99.90
2019-04-26T03:40:38.916Z,99.90
2019-04-26T03:46:05.744Z,99.90
2019-04-26T03:51:18.325Z,99.90
2019-04-26T03:57:03.273Z,99.90
2019-04-26T04:02:28.466Z,99.90
2019-04-26T04:07:39.226Z,99.90
2019-04-26T04:13:04.387Z,99.90
2019-04-26T04:23:27.159Z,99.90
2019-04-26T04:34:23.571Z,99.90
2019-04-26T04:39:53.573Z,99.90
2019-04-26T04:45:30.702Z,99.90
2019-04-26T04:50:47.578Z,99.90
2019-04-26T04:56:02.871Z,99.90
2019-04-26T05:01:36.476Z,99.90
2019-04-26T05:07:12.850Z,99.90
2019-04-26T05:12:31.463Z,99.90
2019-04-26T05:18:03.673Z,99.90
2019-04-26T05:23:40.231Z,99.50
2019-04-26T05:29:11.518Z,99.10
2019-04-26T05:34:40.573Z,99.90
2019-04-26T05:39:58.475Z,99.90
2019-04-26T05:45:24.322Z,99.90
2019-04-26T05:51:22.092Z,99.90
2019-04-26T05:56:59.794Z,99.90
2019-04-26T06:02:42.307Z,99.70
2019-04-26T06:08:30.639Z,99.80
2019-04-26T06:13:46.419Z,98.40
2019-04-26T06:19:06.654Z,98.50
2019-04-26T06:24:33.406Z,97.80
2019-04-26T06:29:49.689Z,97.30
2019-04-26T06:35:16.335Z,96.30
2019-04-26T06:40:25.696Z,96.00
2019-04-26T06:46:17.750Z,94.40
2019-04-26T06:51:27.402Z,93.20
2019-04-26T06:57:16.783Z,92.40
2019-04-26T07:02:27.901Z,91.50
2019-04-26T07:07:54.132Z,92.20
2019-04-26T07:13:31.745Z,91.60
2019-04-26T07:19:26.641Z,91.70
2019-04-26T07:25:11.439Z,90.30
2019-04-26T07:30:42.223Z,90.50
2019-04-26T07:36:09.887Z,90.40
2019-04-26T07:41:44.514Z,88.50
2019-04-26T08:03:50.813Z,84.20
2019-04-26T08:09:09.612Z,76.70
2019-04-26T08:19:23.979Z,65.40
2019-04-26T08:24:30.726Z,66.90
2019-04-26T08:29:38.026Z,67.40
2019-04-26T08:34:45.253Z,68.20
2019-04-26T08:39:52.012Z,66.90
2019-04-26T08:45:08.888Z,67.00
2019-04-26T08:50:17.705Z,61.80
2019-04-26T08:55:24.654Z,57.60
2019-04-26T09:00:56.642Z,58.20
2019-04-26T09:06:25.343Z,55.90
2019-04-26T09:16:35.311Z,53.60
2019-04-26T09:21:54.441Z,50.30
2019-04-26T09:27:06.102Z,52.50
2019-04-26T09:32:16.002Z,47.10
2019-04-26T09:37:19.865Z,46.30
2019-04-26T09:42:31.375Z,46.40
2019-04-26T09:47:40.540Z,46.00
2019-04-26T09:52:50.189Z,48.00
2019-04-26T09:57:57.023Z,46.20
2019-04-26T10:03:00.920Z,46.30
2019-04-26T10:08:08.418Z,46.60
2019-04-26T10:13:27.121Z,46.50
2019-04-26T10:18:30.885Z,45.00
2019-04-26T10:23:34.589Z,42.40
2019-04-26T10:28:38.322Z,43.30
2019-04-26T10:33:42.279Z,44.90
2019-04-26T10:38:46.346Z,46.00
2019-04-26T10:43:53.193Z,43.90
2019-04-26T10:49:08.207Z,45.80
2019-04-26T10:54:17.535Z,46.50
2019-04-26T10:59:31.963Z,46.90
2019-04-26T11:04:37.331Z,42.60
2019-04-26T11:09:41.178Z,40.80
2019-04-26T11:14:44.947Z,40.70
2019-04-26T11:19:48.746Z,42.00
2019-04-26T11:24:53.816Z,40.20
2019-04-26T11:29:59.669Z,38.70
2019-04-26T11:35:03.934Z,39.40
2019-04-26T11:40:10.223Z,40.50
2019-04-26T11:45:14.759Z,41.70
2019-04-26T11:50:19.608Z,39.80
2019-04-26T11:55:25.366Z,38.90
2019-04-26T12:00:34.302Z,38.40
2019-04-26T12:05:44.926Z,36.10
2019-04-26T12:10:48.610Z,37.30
2019-04-26T12:15:52.353Z,35.90
2019-04-26T12:20:57.175Z,36.10
2019-04-26T12:26:01.462Z,37.30
2019-04-26T12:31:05.849Z,41.00
2019-04-26T12:36:13.358Z,38.30
2019-04-26T12:41:17.159Z,38.50
2019-04-26T12:46:39.662Z,40.40
2019-04-26T12:51:47.296Z,41.40
2019-04-26T12:56:50.066Z,41.80
2019-04-26T13:02:04.961Z,40.70
2019-04-26T13:07:16.956Z,48.60
2019-04-26T13:12:26.006Z,49.30
2019-04-26T13:17:35.744Z,52.20
2019-04-26T13:22:45.987Z,54.50
2019-04-26T13:27:45.574Z,58.60
2019-04-26T13:32:53.494Z,62.00
2019-04-26T13:37:55.709Z,54.20
2019-04-26T13:42:59.469Z,54.30
2019-04-26T13:48:20.990Z,55.30
2019-04-26T13:53:25.820Z,57.60
2019-04-26T13:58:30.114Z,59.30
2019-04-26T14:03:33.930Z,57.20
2019-04-26T14:13:41.158Z,57.00
2019-04-26T14:18:44.866Z,56.70
2019-04-26T14:24:10.431Z,53.50
2019-04-26T14:29:14.594Z,50.70
2019-04-26T14:34:18.287Z,55.00
2019-04-26T14:39:34.997Z,58.30
2019-04-26T14:44:31.435Z,54.50
2019-04-26T14:49:39.249Z,53.10
2019-04-26T14:54:41.389Z,54.30
2019-04-26T14:59:50.270Z,56.10
2019-04-26T15:05:12.222Z,51.80
2019-04-26T15:10:19.128Z,52.60
2019-04-26T15:15:26.914Z,51.30
2019-04-26T15:20:29.381Z,51.30
2019-04-26T15:25:36.765Z,47.80
2019-04-26T15:30:46.410Z,48.40
2019-04-26T15:35:49.922Z,51.60
2019-04-26T15:41:16.637Z,52.10
2019-04-26T15:46:33.685Z,54.30
2019-04-26T15:51:38.246Z,52.60
2019-04-26T15:56:42.292Z,52.80
2019-04-26T16:01:49.035Z,53.90
2019-04-26T16:06:52.498Z,53.50
2019-04-26T16:11:56.368Z,54.30
2019-04-26T16:17:03.222Z,55.60
2019-04-26T16:22:06.730Z,56.10
2019-04-26T16:27:12.543Z,54.50
2019-04-26T16:32:29.562Z,53.90
2019-04-26T16:37:35.175Z,54.60
2019-04-26T16:42:40.257Z,80.30
2019-04-26T16:47:48.524Z,89.90
2019-04-26T16:52:51.255Z,91.50
2019-04-26T16:57:58.357Z,92.60
2019-04-26T17:03:12.110Z,92.60
2019-04-26T17:08:19.205Z,92.80
2019-04-26T17:13:29.876Z,93.00
2019-04-26T17:18:30.000Z,93.50
2019-04-26T17:23:50.010Z,93.80
2019-04-26T17:28:55.637Z,93.90
2019-04-26T17:34:00.968Z,94.40
2019-04-26T17:39:11.069Z,94.20
2019-04-26T17:44:15.514Z,94.30
2019-04-26T17:49:21.464Z,94.60
2019-04-26T17:54:45.620Z,94.70
2019-04-26T17:59:34.644Z,95.00
2019-04-26T18:04:40.613Z,95.90
2019-04-26T18:09:46.684Z,96.30
2019-04-26T18:14:48.722Z,96.30
2019-04-26T18:20:05.193Z,96.60
2019-04-26T18:25:10.879Z,97.00
2019-04-26T18:30:14.942Z,96.40
2019-04-26T18:35:18.637Z,96.30
2019-04-26T18:40:23.697Z,96.90
2019-04-26T18:45:29.645Z,96.90
2019-04-26T18:50:36.510Z,97.00
2019-04-26T18:55:40.295Z,97.10
2019-04-26T19:00:44.513Z,98.00
2019-04-26T19:05:48.251Z,98.50
2019-04-26T19:11:01.016Z,99.00
2019-04-26T19:16:10.567Z,99.30
2019-04-26T19:21:23.682Z,99.80
2019-04-26T19:26:33.000Z,99.80
2019-04-26T19:31:33.398Z,99.90
2019-04-26T19:36:37.235Z,99.90
2019-04-26T19:41:42.068Z,99.90
2019-04-26T19:46:53.980Z,99.90
2019-04-26T19:52:07.002Z,99.90
2019-04-26T19:57:39.043Z,99.90
2019-04-26T20:02:42.171Z,99.90
2019-04-26T20:12:52.746Z,99.90
2019-04-26T20:17:59.998Z,99.90
2019-04-26T20:23:05.770Z,99.90
2019-04-26T20:33:14.796Z,99.90
2019-04-26T20:53:40.091Z,99.20
2019-04-26T20:58:46.699Z,99.50
2019-04-26T21:03:48.122Z,99.40
2019-04-26T21:19:05.910Z,99.10
2019-04-26T21:34:50.797Z,99.20
2019-04-26T21:55:44.141Z,99.50
2019-04-26T22:01:00.989Z,99.70
2019-04-26T22:06:05.446Z,99.90
2019-04-26T22:11:09.372Z,99.90
2019-04-26T22:16:33.797Z,99.90
2019-04-26T22:21:31.686Z,99.90
2019-04-26T22:26:38.110Z,99.90
2019-04-26T22:36:46.093Z,99.90
2019-04-26T22:52:16.501Z,99.90
2019-04-26T22:57:20.494Z,99.90
2019-04-26T23:02:27.724Z,99.90
2019-04-26T23:07:30.311Z,99.80
2019-04-26T23:12:51.830Z,99.90
2019-04-26T23:18:18.689Z,99.90
2019-04-26T23:23:23.659Z,99.90
2019-04-26T23:28:31.823Z,99.90
2019-04-26T23:33:34.177Z,99.90
2019-04-26T23:38:37.877Z,99.90
2019-04-26T23:43:42.012Z,99.20
2019-04-26T23:49:38.636Z,99.90
2019-04-26T23:54:43.005Z,99.90
2019-04-26T23:59:51.087Z,99.90
